Pagrindinis puslapis
METAR-TAF:

METAR-TAF

Oro uostai :

Čiofu, Japonija

platuma: 35-40N, ilguma: 139-32E, Aukštis: 41 m

Dabartinis oras

Ataskaita buvo paskelbta 55 minutes, ne 02:00 UTC
Vėjas 4 kt iš Šiaurės, svyruoja nuo Vakarų ir Rytų/Šiaurės Rytų
Temperatūra 12°C
Drėgmė 44%
Slėgis 1012 hPa
Matomumas 10 km arba daugiau
nėra debesų žemiau 1500 m ir nėra kamuolinių lietaus debesų

METAR: RJTF 200200Z 36004KT 280V060 CAVOK 12/M00 Q1012

Laikas: 11:55 (02:55 UTC)


TAF: trūkstamas

Orai ataskaitas ir orų prognozės (METAR, TAF).

turimą stotys yra geltonos ir raudonos taškus žemėlapyje.

Perkelti pele per norėdami pamatyti stoties vardą.

Tada spustelėkite, norėdami matyti oro stebėjimo ir prognozės.

Norėdami pakeisti žemėlapį: spustelėkite ant žalios mygtukų su juodo kryžiaus žemyn,; žalią mygtuką su brūkšneliu, jei norite nutolinti; arba žalių rodyklių gretimoms žemėlapius.


METAR-TAF: